Brawley, California
Current Conditions -  °F | °C
As of 3:53 AM on Thursday 29 Jan 2015 (Local Time) from KIPL Reporting Station
Clear Clear  
Wind Chill: 56°   Ceiling: Unl
Heat Index: 56°   Visibility: 10mi
Dew Point: 50°   Wind: 3mph
Humidity: 80%   Direction: 270°W
Pressure: 30.04"   Gusts: NA
Location:  32.98°N, 115.53°W
Report Text: KIPL 291153Z AUTO 27003KT 10SM CLR 13/10 A3004 RMK AO2 SLP171 T01330100 10161 20133 56010
Loading
Personal Weather Stations






























Interactive Weather Map New forecast layout! Learn more

10-Day Weather Forecast

Advertisements
Track Severe Weather on mobile